Time;durP1;ratioP1;P1;durP2;ratioP2;P2;SDS_P1;SDS_P2;PMS_P1;PMS_P2;Temp;Humidity;BMP_temperature;BMP_pressure;BME280_temperature;BME280_humidity;BME280_pressure;Samples;Min_cycle;Max_cycle;Signal;HPM_P1;HPM_P2
2023/05/03 00:00:41;;;;;;;12.50;6.10;;;8.10;99.90;;;;;;4887548;29;20017;-83
2023/05/03 00:03:06;;;;;;;14.60;6.25;;;8.00;99.90;;;;;;4903149;29;20028;-83
2023/05/03 00:05:32;;;;;;;10.80;6.05;;;8.00;99.90;;;;;;4887209;29;20049;-86
2023/05/03 00:07:59;;;;;;;13.48;6.55;;;8.00;99.90;;;;;;4903700;29;20013;-83
2023/05/03 00:10:25;;;;;;;14.43;6.03;;;7.90;99.90;;;;;;4903503;29;20044;-82
2023/05/03 00:12:50;;;;;;;11.10;6.32;;;7.90;99.90;;;;;;4887569;29;20085;-82
2023/05/03 00:15:16;;;;;;;12.10;5.85;;;7.90;99.90;;;;;;4887488;29;20021;-84
2023/05/03 00:17:42;;;;;;;14.77;6.70;;;7.80;99.90;;;;;;4886564;29;20062;-84
2023/05/03 00:20:08;;;;;;;16.73;7.78;;;7.90;99.90;;;;;;4886869;29;20032;-83
2023/05/03 00:22:35;;;;;;;12.75;6.15;;;7.80;99.90;;;;;;4903314;29;20028;-83
2023/05/03 00:25:01;;;;;;;12.80;5.82;;;7.80;99.90;;;;;;4887144;29;20052;-87
2023/05/03 00:27:27;;;;;;;17.83;6.53;;;7.70;99.90;;;;;;4887355;29;20013;-87
2023/05/03 00:29:52;;;;;;;17.08;6.82;;;7.70;99.90;;;;;;4887472;29;20042;-85
2023/05/03 00:32:21;;;;;;;18.27;6.60;;;7.60;99.90;;;;;;4903585;29;20025;-86
2023/05/03 00:34:56;;;;;;;13.90;6.05;;;7.60;99.90;;;;;;4903295;29;20013;-86
2023/05/03 00:37:23;;;;;;;15.88;6.30;;;7.50;99.90;;;;;;4886950;29;20048;-83
2023/05/03 00:39:49;;;;;;;12.80;6.65;;;7.50;99.90;;;;;;4887079;29;20040;-91
2023/05/03 00:42:14;;;;;;;11.90;5.97;;;7.40;99.90;;;;;;4887268;29;20025;-88
2023/05/03 00:44:40;;;;;;;19.13;7.93;;;7.30;99.90;;;;;;4886916;29;20029;-92
2023/05/03 00:47:07;;;;;;;13.82;7.05;;;7.30;99.90;;;;;;4902526;29;20069;-87
2023/05/03 00:49:33;;;;;;;15.18;6.65;;;7.20;99.90;;;;;;4885762;29;20053;-84
2023/05/03 00:51:58;;;;;;;13.43;6.75;;;7.20;99.90;;;;;;4902358;29;20029;-85
2023/05/03 00:54:28;;;;;;;14.93;7.07;;;7.20;99.90;;;;;;4885162;29;20065;-85
2023/05/03 00:56:55;;;;;;;17.30;7.50;;;7.20;99.90;;;;;;4886634;29;20017;-85
2023/05/03 00:59:21;;;;;;;15.80;7.43;;;7.20;99.90;;;;;;4885940;29;20054;-89
2023/05/03 01:01:48;;;;;;;17.90;7.63;;;7.20;99.90;;;;;;4900492;29;20037;-85
2023/05/03 01:04:15;;;;;;;18.08;7.30;;;7.20;99.90;;;;;;4884972;29;20029;-88
2023/05/03 01:07:09;;;;;;;15.52;7.95;;;7.10;99.90;;;;;;4885745;29;20081;-86
2023/05/03 01:09:41;;;;;;;16.02;7.13;;;7.10;99.90;;;;;;4875966;29;20047;-84
2023/05/03 01:12:13;;;;;;;17.95;8.30;;;7.00;99.90;;;;;;4886331;29;20046;-85
2023/05/03 01:14:47;;;;;;;18.52;7.53;;;6.90;99.90;;;;;;4886002;29;20089;-84
2023/05/03 01:17:14;;;;;;;17.02;7.32;;;6.90;99.90;;;;;;4902314;29;20045;-84
2023/05/03 01:19:55;;;;;;;14.32;7.60;;;6.90;99.90;;;;;;4902315;29;20076;-84
2023/05/03 01:22:25;;;;;;;;;;;6.90;99.90;;;;;;4902822;29;20029;-83
2023/05/03 01:25:13;;;;;;;11.97;6.77;;;6.80;99.90;;;;;;4886100;29;19991;-84
2023/05/03 01:27:40;;;;;;;13.65;7.15;;;6.80;99.90;;;;;;4901970;29;20055;-85
2023/05/03 01:30:11;;;;;;;20.20;7.50;;;6.70;99.90;;;;;;4902338;29;20044;-87
2023/05/03 01:32:36;;;;;;;;;;;6.70;99.90;;;;;;4902575;29;20029;-88
2023/05/03 01:35:19;;;;;;;16.45;7.97;;;6.60;99.90;;;;;;4884989;29;19922;-86
2023/05/03 01:37:45;;;;;;;12.70;7.78;;;6.60;99.90;;;;;;4885658;29;20033;-84
2023/05/03 01:40:15;;;;;;;15.27;8.48;;;6.60;99.90;;;;;;4884909;29;20028;-85
2023/05/03 01:42:42;;;;;;;16.08;7.22;;;6.60;99.90;;;;;;4885723;29;20047;-84
2023/05/03 01:45:09;;;;;;;13.15;7.68;;;6.50;99.90;;;;;;4885370;29;20052;-83
2023/05/03 01:47:34;;;;;;;17.13;8.88;;;6.60;99.90;;;;;;4885773;29;20025;-85
2023/05/03 01:50:00;;;;;;;17.75;8.23;;;6.50;99.90;;;;;;4886321;29;20032;-84
2023/05/03 01:52:26;;;;;;;18.83;8.40;;;6.50;99.90;;;;;;4886096;29;20021;-82
2023/05/03 01:54:52;;;;;;;17.83;8.02;;;6.50;99.90;;;;;;4886122;29;20052;-83
2023/05/03 01:57:18;;;;;;;15.32;8.13;;;6.50;99.90;;;;;;4886276;29;20023;-83
2023/05/03 01:59:44;;;;;;;17.60;8.20;;;6.50;99.90;;;;;;4885916;29;20025;-83
2023/05/03 02:02:10;;;;;;;18.23;7.97;;;6.50;99.90;;;;;;4887395;29;20032;-83
2023/05/03 02:04:35;;;;;;;15.00;7.35;;;6.40;99.90;;;;;;4889153;29;20048;-84
2023/05/03 02:07:01;;;;;;;17.65;8.55;;;6.40;99.90;;;;;;4889440;29;20046;-83
2023/05/03 02:09:27;;;;;;;18.73;9.23;;;6.40;99.90;;;;;;4889228;29;20013;-83
2023/05/03 02:11:52;;;;;;;12.60;7.50;;;6.40;99.90;;;;;;4889444;29;20077;-83
2023/05/03 02:14:18;;;;;;;12.75;7.65;;;6.40;99.90;;;;;;4889453;29;20065;-82
2023/05/03 02:16:43;;;;;;;16.70;8.45;;;6.40;99.90;;;;;;4905152;29;20021;-85
2023/05/03 02:19:09;;;;;;;14.27;8.30;;;6.40;99.90;;;;;;4905139;29;20057;-84
2023/05/03 02:21:36;;;;;;;16.00;7.60;;;6.40;99.90;;;;;;4889472;29;20084;-83
2023/05/03 02:24:02;;;;;;;15.70;7.88;;;6.40;99.90;;;;;;4889523;29;20060;-83
2023/05/03 02:26:28;;;;;;;17.15;8.43;;;6.40;99.90;;;;;;4888820;29;20013;-84
2023/05/03 02:28:55;;;;;;;15.65;8.50;;;6.40;99.90;;;;;;4889083;29;20025;-85
2023/05/03 02:31:21;;;;;;;15.27;7.88;;;6.40;99.90;;;;;;4904227;29;20024;-85
2023/05/03 02:33:47;;;;;;;13.38;7.80;;;6.30;99.90;;;;;;4888408;29;20021;-83
2023/05/03 02:36:12;;;;;;;17.30;7.82;;;6.30;99.90;;;;;;4888563;29;20048;-83
2023/05/03 02:38:38;;;;;;;12.50;7.68;;;6.30;99.90;;;;;;4905454;29;20025;-84
2023/05/03 02:41:03;;;;;;;14.05;7.60;;;6.20;99.90;;;;;;4904924;29;20018;-84
2023/05/03 02:43:29;;;;;;;17.30;8.00;;;6.20;99.90;;;;;;4888631;29;20029;-82
2023/05/03 02:45:55;;;;;;;16.27;8.90;;;6.20;99.90;;;;;;4888543;29;20125;-84
2023/05/03 02:48:21;;;;;;;19.40;8.68;;;6.20;99.90;;;;;;4888768;29;20033;-84
2023/05/03 02:50:47;;;;;;;19.92;7.93;;;6.10;99.90;;;;;;4889001;29;20021;-87
2023/05/03 02:53:12;;;;;;;14.82;7.13;;;6.10;99.90;;;;;;4887681;29;20025;-91
2023/05/03 02:55:39;;;;;;;17.63;8.15;;;6.10;99.90;;;;;;4888263;29;20025;-85
2023/05/03 02:58:04;;;;;;;15.13;8.45;;;6.00;99.90;;;;;;4903724;29;20055;-92
2023/05/03 03:00:30;;;;;;;14.77;8.38;;;6.10;99.90;;;;;;4886558;29;20061;-93
2023/05/03 03:02:57;;;;;;;13.68;8.65;;;6.00;99.90;;;;;;4902503;29;20037;-94
2023/05/03 03:05:22;;;;;;;18.50;7.95;;;6.00;99.90;;;;;;4901057;29;20041;-94
2023/05/03 03:07:48;;;;;;;18.73;9.02;;;6.00;99.90;;;;;;4898163;29;20129;-86
2023/05/03 03:10:14;;;;;;;13.43;7.38;;;6.00;99.90;;;;;;4877961;29;20119;-91
2023/05/03 03:12:40;;;;;;;22.27;8.02;;;6.00;99.90;;;;;;4884014;29;20045;-90
2023/05/03 03:15:06;;;;;;;18.83;9.00;;;6.00;99.90;;;;;;4886855;29;20021;-95
2023/05/03 03:17:31;;;;;;;19.13;8.00;;;5.90;99.90;;;;;;4902616;29;20032;-88
2023/05/03 03:20:00;;;;;;;16.40;7.70;;;6.00;99.90;;;;;;4886223;29;20021;-93
2023/05/03 03:22:26;;;;;;;17.65;8.57;;;5.90;99.90;;;;;;4885331;29;20025;-89
2023/05/03 03:24:52;;;;;;;17.20;8.70;;;5.90;99.90;;;;;;4887319;29;20056;-84
2023/05/03 03:27:18;;;;;;;16.85;8.85;;;5.90;99.90;;;;;;4887087;29;20028;-84
2023/05/03 03:29:43;;;;;;;18.48;9.10;;;5.90;99.90;;;;;;4887990;29;20131;-83
2023/05/03 03:32:09;;;;;;;14.52;8.57;;;5.80;99.90;;;;;;4886822;29;20033;-91
2023/05/03 03:34:34;;;;;;;20.63;10.40;;;5.80;99.90;;;;;;4888466;29;20021;-87
2023/05/03 03:37:00;;;;;;;17.58;9.73;;;5.80;99.90;;;;;;4884047;29;20057;-90
2023/05/03 03:39:26;;;;;;;15.30;8.88;;;5.70;99.90;;;;;;4883030;29;20037;-92
2023/05/03 03:41:51;;;;;;;17.98;8.98;;;5.70;99.90;;;;;;4869139;29;20022;-88
2023/05/03 03:44:17;;;;;;;18.85;9.40;;;5.70;99.90;;;;;;4867976;29;20041;-88
2023/05/03 03:46:42;;;;;;;21.10;8.95;;;5.60;99.90;;;;;;4866944;29;20016;-87
2023/05/03 03:49:08;;;;;;;18.02;9.27;;;5.60;99.90;;;;;;4864127;29;20531;-89
2023/05/03 03:51:34;;;;;;;18.02;8.45;;;5.50;99.90;;;;;;4864487;29;20101;-89
2023/05/03 03:53:59;;;;;;;14.73;8.55;;;5.50;99.90;;;;;;4865225;29;20057;-92
2023/05/03 03:56:25;;;;;;;16.70;7.97;;;5.50;99.90;;;;;;4879584;29;20121;-90
2023/05/03 03:58:50;;;;;;;16.88;8.82;;;5.40;99.90;;;;;;4863292;29;20499;-89
2023/05/03 04:01:16;;;;;;;14.93;8.30;;;5.40;99.90;;;;;;4866379;29;20025;-85
2023/05/03 04:03:45;;;;;;;20.30;8.50;;;5.40;99.90;;;;;;4884242;29;20034;-86
2023/05/03 04:06:11;;;;;;;16.85;8.65;;;5.40;99.90;;;;;;4884244;29;20025;-87
2023/05/03 04:08:36;;;;;;;17.45;9.45;;;5.40;99.90;;;;;;4883910;29;20070;-84
2023/05/03 04:11:02;;;;;;;16.50;7.93;;;5.40;99.90;;;;;;4867512;29;20038;-87
2023/05/03 04:13:28;;;;;;;14.00;7.68;;;5.30;99.90;;;;;;4866341;29;20038;-87
2023/05/03 04:15:55;;;;;;;16.50;8.18;;;5.30;99.90;;;;;;4881548;29;20042;-93
2023/05/03 04:18:21;;;;;;;16.60;8.50;;;5.20;99.90;;;;;;4865049;29;20033;-91
2023/05/03 04:20:48;;;;;;;18.77;7.95;;;5.20;99.90;;;;;;4881768;29;20037;-88
2023/05/03 04:23:14;;;;;;;17.92;8.68;;;5.20;99.90;;;;;;4881624;29;20033;-83
2023/05/03 04:25:45;;;;;;;18.92;8.10;;;5.20;99.90;;;;;;4868235;29;20049;-86
2023/05/03 04:28:14;;;;;;;16.20;7.22;;;5.20;99.90;;;;;;4868847;29;20021;-83
2023/05/03 04:30:42;;;;;;;17.13;8.32;;;5.20;99.90;;;;;;4869018;29;20049;-82
2023/05/03 04:33:08;;;;;;;17.30;8.40;;;5.10;99.90;;;;;;4868263;29;20020;-84
2023/05/03 04:35:34;;;;;;;21.13;8.85;;;5.10;99.90;;;;;;4873853;29;20060;-88
2023/05/03 04:38:02;;;;;;;14.52;7.30;;;5.10;99.90;;;;;;4902416;29;20017;-84
2023/05/03 04:40:28;;;;;;;20.73;9.63;;;5.10;99.90;;;;;;4884952;29;20097;-86
2023/05/03 04:42:56;;;;;;;16.05;8.25;;;5.00;99.90;;;;;;4901486;29;20048;-88
2023/05/03 04:45:22;;;;;;;16.83;9.15;;;5.00;99.90;;;;;;4885008;29;20045;-92
2023/05/03 04:47:48;;;;;;;17.63;8.20;;;5.00;99.90;;;;;;4900816;29;20021;-85
2023/05/03 04:50:14;;;;;;;15.00;7.50;;;5.00;99.90;;;;;;4902456;29;20053;-90
2023/05/03 04:52:41;;;;;;;15.88;7.97;;;4.90;99.90;;;;;;4884068;29;20045;-87
2023/05/03 04:55:07;;;;;;;20.60;8.27;;;4.90;99.90;;;;;;4884538;29;20089;-92
2023/05/03 04:57:33;;;;;;;17.58;7.65;;;4.90;99.90;;;;;;4882964;29;20029;-90
2023/05/03 04:59:58;;;;;;;16.92;8.48;;;4.90;99.90;;;;;;4899287;29;20068;-92
2023/05/03 05:02:26;;;;;;;13.95;8.23;;;4.90;99.90;;;;;;4884039;29;20049;-88
2023/05/03 05:04:52;;;;;;;18.92;8.55;;;4.90;99.90;;;;;;4883722;29;20041;-86
2023/05/03 05:07:18;;;;;;;16.65;8.30;;;4.90;99.90;;;;;;4884735;29;20023;-86
2023/05/03 05:09:44;;;;;;;16.33;8.30;;;4.90;99.90;;;;;;4870885;29;20048;-85
2023/05/03 05:12:10;;;;;;;21.73;8.52;;;4.90;99.90;;;;;;4901938;29;20061;-85
2023/05/03 05:14:36;;;;;;;17.75;8.65;;;4.90;99.90;;;;;;4885497;29;20021;-92
2023/05/03 05:17:01;;;;;;;17.63;8.50;;;4.90;99.90;;;;;;4885370;29;20044;-90
2023/05/03 05:19:27;;;;;;;13.35;6.85;;;4.80;99.90;;;;;;4886267;29;20038;-89
2023/05/03 05:21:53;;;;;;;14.80;7.55;;;4.80;99.90;;;;;;4901142;29;20021;-92
2023/05/03 05:24:18;;;;;;;19.15;8.57;;;4.80;99.90;;;;;;4901664;29;20045;-91
2023/05/03 05:26:44;;;;;;;13.38;7.22;;;4.70;99.90;;;;;;4902354;29;20025;-87
2023/05/03 05:29:10;;;;;;;13.27;7.47;;;4.70;99.90;;;;;;4884320;29;20037;-89
2023/05/03 05:31:36;;;;;;;15.25;7.93;;;4.70;99.90;;;;;;4885604;29;20022;-89
2023/05/03 05:34:02;;;;;;;14.43;7.43;;;4.70;99.90;;;;;;4902826;29;20048;-86
2023/05/03 05:36:29;;;;;;;18.10;7.72;;;4.70;99.90;;;;;;4885249;29;20052;-86
2023/05/03 05:38:54;;;;;;;18.52;7.50;;;4.60;99.90;;;;;;4886423;29;20132;-87
2023/05/03 05:41:20;;;;;;;13.52;7.50;;;4.70;99.90;;;;;;4902687;29;20021;-91
2023/05/03 05:43:46;;;;;;;14.52;7.57;;;4.70;99.90;;;;;;4886443;29;20037;-88
2023/05/03 05:46:11;;;;;;;17.70;7.78;;;4.70;99.90;;;;;;4884633;29;20033;-91
2023/05/03 05:48:38;;;;;;;14.93;7.50;;;4.70;99.90;;;;;;4900495;29;20080;-92
2023/05/03 05:51:04;;;;;;;18.02;7.45;;;4.70;99.90;;;;;;4885003;29;20017;-88
2023/05/03 05:53:29;;;;;;;13.23;6.63;;;4.60;99.90;;;;;;4885616;29;20048;-87
2023/05/03 05:55:56;;;;;;;14.00;7.40;;;4.70;99.90;;;;;;4902184;29;20029;-83
2023/05/03 05:58:22;;;;;;;14.90;7.57;;;4.70;99.90;;;;;;4886387;29;20088;-84
2023/05/03 06:00:47;;;;;;;14.70;6.85;;;4.70;99.90;;;;;;4885758;29;20048;-82
2023/05/03 06:03:14;;;;;;;12.88;7.15;;;4.70;99.90;;;;;;4878082;29;20052;-94
2023/05/03 06:05:40;;;;;;;17.67;7.78;;;4.70;99.90;;;;;;4869227;29;20057;-93
2023/05/03 06:08:06;;;;;;;12.75;7.55;;;4.80;99.90;;;;;;4871499;29;20029;-94
2023/05/03 06:10:32;;;;;;;17.75;8.88;;;4.80;99.90;;;;;;4890343;29;20049;-95
2023/05/03 06:12:58;;;;;;;16.52;7.95;;;4.90;99.90;;;;;;4892361;29;20045;-93
2023/05/03 06:15:24;;;;;;;16.35;9.00;;;5.00;99.90;;;;;;4893357;29;20033;-95
2023/05/03 06:17:50;;;;;;;21.95;9.43;;;5.10;99.90;;;;;;4878901;29;20029;-93
2023/05/03 06:20:17;;;;;;;16.85;9.13;;;5.10;99.90;;;;;;4893498;29;20135;-94
2023/05/03 06:22:42;;;;;;;17.20;9.10;;;5.20;99.90;;;;;;4873284;29;20025;-93
2023/05/03 06:25:09;;;;;;;16.63;8.90;;;5.30;99.90;;;;;;4887190;29;20082;-95
2023/05/03 06:27:37;;;;;;;16.35;8.02;;;5.40;99.90;;;;;;4873255;29;20032;-92
2023/05/03 06:30:03;;;;;;;20.45;9.07;;;5.40;99.90;;;;;;4879446;29;20025;-91
2023/05/03 06:32:28;;;;;;;19.13;10.43;;;5.50;99.90;;;;;;4897449;29;20032;-92
2023/05/03 06:34:54;;;;;;;23.40;9.43;;;5.60;99.90;;;;;;4884942;29;20053;-87
2023/05/03 06:37:22;;;;;;;18.27;9.30;;;5.70;99.90;;;;;;4880531;29;20056;-95
2023/05/03 06:39:49;;;;;;;22.63;9.85;;;5.80;99.90;;;;;;4878443;29;20029;-89
2023/05/03 06:42:14;;;;;;;19.42;9.38;;;5.80;99.90;;;;;;4900683;29;20085;-88
2023/05/03 06:44:41;;;;;;;18.17;8.77;;;5.90;99.90;;;;;;4900998;29;20049;-88
2023/05/03 06:47:07;;;;;;;20.50;10.40;;;6.00;99.90;;;;;;4884932;29;20039;-85
2023/05/03 06:49:33;;;;;;;17.08;9.13;;;6.10;99.90;;;;;;4888686;29;20021;-86
2023/05/03 06:51:58;;;;;;;22.15;8.90;;;6.10;99.90;;;;;;4888290;29;20028;-86
2023/05/03 06:54:24;;;;;;;22.23;10.10;;;6.20;99.90;;;;;;4883531;29;20065;-93
2023/05/03 06:56:50;;;;;;;24.00;9.60;;;6.30;99.90;;;;;;4868795;29;20049;-92
2023/05/03 06:59:16;;;;;;;21.30;9.18;;;6.40;99.90;;;;;;4883291;29;20036;-95
2023/05/03 07:01:41;;;;;;;22.73;10.63;;;6.40;99.90;;;;;;4882651;29;20073;-92
2023/05/03 07:04:07;;;;;;;17.73;9.57;;;6.60;99.90;;;;;;4867037;29;20146;-93
2023/05/03 07:06:33;;;;;;;18.10;9.02;;;6.70;99.90;;;;;;4869477;29;20480;-94
2023/05/03 07:08:58;;;;;;;17.27;8.43;;;6.80;99.90;;;;;;4865801;29;20044;-91
2023/05/03 07:11:24;;;;;;;14.52;6.22;;;6.90;99.90;;;;;;4866478;29;20029;-88
2023/05/03 07:13:51;;;;;;;19.15;5.88;;;7.00;99.90;;;;;;4870965;29;20061;-92
2023/05/03 07:16:17;;;;;;;11.93;5.60;;;7.10;99.90;;;;;;4866869;29;20025;-92
2023/05/03 07:18:45;;;;;;;13.77;4.63;;;7.20;99.90;;;;;;4864983;29;20039;-92
2023/05/03 07:21:14;;;;;;;14.48;4.97;;;7.40;99.90;;;;;;4865296;29;20021;-92
2023/05/03 07:23:40;;;;;;;12.90;5.55;;;7.50;99.90;;;;;;4869587;29;20037;-94
2023/05/03 07:26:06;;;;;;;11.98;4.50;;;7.60;99.90;;;;;;4872066;29;20025;-95
2023/05/03 07:28:32;;;;;;;14.15;4.68;;;7.70;99.90;;;;;;4876184;29;20055;-94
2023/05/03 07:30:58;;;;;;;11.68;3.83;;;7.80;99.90;;;;;;4874363;29;20070;-95
2023/05/03 07:33:24;;;;;;;10.20;3.75;;;7.90;99.90;;;;;;4876861;29;20105;-95
2023/05/03 07:35:50;;;;;;;12.40;4.07;;;8.00;99.90;;;;;;4875958;29;20051;-92
2023/05/03 07:38:16;;;;;;;11.15;3.65;;;8.10;99.90;;;;;;4885923;29;20053;-96
2023/05/03 07:40:42;;;;;;;7.65;3.22;;;8.20;99.90;;;;;;4884425;29;20021;-94
2023/05/03 07:43:11;;;;;;;8.25;3.42;;;8.30;99.90;;;;;;4878778;29;20029;-93
2023/05/03 07:45:37;;;;;;;8.60;3.22;;;8.50;99.90;;;;;;4872492;29;20037;-96
2023/05/03 07:48:05;;;;;;;6.45;2.88;;;8.60;99.90;;;;;;4866419;29;20530;-94
2023/05/03 07:50:30;;;;;;;5.40;3.08;;;8.70;99.90;;;;;;4882486;29;20089;-94
2023/05/03 07:52:56;;;;;;;12.88;3.45;;;8.80;99.90;;;;;;4865465;29;20029;-90
2023/05/03 07:55:22;;;;;;;6.55;2.65;;;9.00;99.90;;;;;;4865188;29;20029;-96
2023/05/03 07:57:48;;;;;;;7.35;2.55;;;9.10;99.90;;;;;;4868213;29;20064;-94
2023/05/03 08:00:16;;;;;;;6.20;2.90;;;9.20;99.90;;;;;;4883427;29;20040;-93
2023/05/03 08:02:42;;;;;;;6.45;2.50;;;9.40;99.90;;;;;;4866022;29;20025;-95
2023/05/03 08:05:09;;;;;;;4.60;2.92;;;9.50;99.90;;;;;;4869047;29;20061;-95
2023/05/03 08:07:34;;;;;;;8.13;3.10;;;9.60;99.90;;;;;;4872170;29;20021;-93
2023/05/03 08:10:01;;;;;;;9.48;3.30;;;9.70;99.90;;;;;;4880326;29;20036;-95
2023/05/03 08:12:27;;;;;;;14.00;3.53;;;9.80;99.90;;;;;;4869206;29;20391;-93
2023/05/03 08:14:55;;;;;;;6.82;3.15;;;10.00;99.90;;;;;;4875944;29;20025;-93
2023/05/03 08:17:22;;;;;;;10.43;3.20;;;10.10;99.90;;;;;;4892977;29;20047;-90
2023/05/03 08:19:48;;;;;;;6.95;3.20;;;10.20;99.90;;;;;;4880954;29;20037;-96
2023/05/03 08:22:15;;;;;;;9.13;2.85;;;10.30;99.90;;;;;;4881463;29;20052;-93
2023/05/03 08:24:41;;;;;;;6.40;3.10;;;10.40;99.90;;;;;;4881786;29;20041;-93
2023/05/03 08:27:08;;;;;;;8.50;3.13;;;10.60;99.90;;;;;;4883922;29;20036;-93
2023/05/03 08:29:36;;;;;;;5.43;3.30;;;10.70;99.90;;;;;;4882785;29;20037;-93
2023/05/03 08:32:03;;;;;;;6.68;3.03;;;10.70;99.90;;;;;;4880469;29;20044;-95
2023/05/03 08:34:29;;;;;;;7.10;3.42;;;10.80;99.90;;;;;;4875310;29;20052;-94
2023/05/03 08:36:56;;;;;;;5.25;2.97;;;10.90;99.90;;;;;;4893748;29;20487;-94
2023/05/03 08:39:29;;;;;;;6.88;3.22;;;11.00;99.90;;;;;;4881611;29;20054;-96
2023/05/03 08:41:55;;;;;;;6.35;2.97;;;11.10;99.90;;;;;;4870453;29;20037;-93
2023/05/03 08:44:22;;;;;;;6.40;2.53;;;11.30;99.90;;;;;;4869478;29;20041;-94
2023/05/03 08:46:49;;;;;;;4.38;2.80;;;11.40;99.90;;;;;;4866723;29;20111;-92
2023/05/03 08:49:16;;;;;;;6.95;3.50;;;11.50;99.90;;;;;;4865020;29;20119;-95
2023/05/03 08:51:45;;;;;;;7.13;3.50;;;11.70;99.90;;;;;;4885836;29;20036;-95
2023/05/03 08:54:12;;;;;;;8.67;4.13;;;11.90;99.90;;;;;;4866798;29;20044;-96
2023/05/03 08:56:42;;;;;;;9.02;4.15;;;12.10;99.90;;;;;;4872632;29;20288;-95
2023/05/03 08:59:10;;;;;;;5.72;3.92;;;12.10;99.90;;;;;;4885095;29;20024;-95
2023/05/03 09:01:37;;;;;;;6.60;3.45;;;12.20;99.90;;;;;;4893118;29;20101;-94
2023/05/03 09:04:03;;;;;;;6.13;3.60;;;12.30;99.90;;;;;;4897580;29;20028;-91
2023/05/03 09:06:31;;;;;;;9.15;3.97;;;12.30;99.90;;;;;;4902670;29;20036;-88
2023/05/03 09:08:57;;;;;;;6.60;3.47;;;12.50;99.90;;;;;;4886573;29;20021;-87
2023/05/03 09:11:31;;;;;;;6.18;3.40;;;12.70;99.90;;;;;;4885629;29;20017;-89
2023/05/03 09:14:17;;;;;;;8.30;3.20;;;12.80;99.90;;;;;;4885738;29;20029;-95
2023/05/03 09:16:44;;;;;;;7.18;3.35;;;13.10;99.90;;;;;;4885489;29;20032;-90
2023/05/03 09:19:11;;;;;;;8.82;3.42;;;13.20;99.90;;;;;;4902268;29;20033;-87
2023/05/03 09:21:45;;;;;;;7.70;2.92;;;13.40;99.90;;;;;;4884312;29;20020;-88
2023/05/03 09:24:16;;;;;;;9.82;3.42;;;13.50;99.90;;;;;;4883460;29;20024;-89
2023/05/03 09:26:42;;;;;;;;;;;13.60;99.90;;;;;;4886415;29;20025;-88
2023/05/03 09:29:08;;;;;;;6.03;2.80;;;13.70;99.60;;;;;;4885835;29;19903;-86
2023/05/03 09:31:36;;;;;;;10.55;3.30;;;13.80;99.00;;;;;;4884751;29;20048;-87
2023/05/03 09:34:19;;;;;;;5.30;2.63;;;13.90;97.60;;;;;;4898078;29;20085;-91
2023/05/03 09:36:48;;;;;;;6.97;3.13;;;14.00;96.70;;;;;;4895743;29;20144;-93
2023/05/03 09:39:18;;;;;;;5.32;2.65;;;14.20;96.30;;;;;;4885682;29;20049;-89
2023/05/03 09:41:45;;;;;;;7.30;2.85;;;14.40;95.80;;;;;;4901894;29;20029;-92
2023/05/03 09:44:11;;;;;;;5.20;3.10;;;14.50;94.90;;;;;;4882763;29;20045;-96
2023/05/03 09:46:37;;;;;;;9.52;3.03;;;14.50;93.20;;;;;;4888906;29;20041;-95
2023/05/03 09:49:03;;;;;;;13.38;3.45;;;14.50;92.70;;;;;;4879676;29;20036;-87
2023/05/03 09:51:30;;;;;;;6.03;2.97;;;14.50;92.50;;;;;;4882963;29;20081;-84
2023/05/03 09:53:58;;;;;;;10.73;3.30;;;14.60;91.80;;;;;;4885683;29;20089;-87
2023/05/03 09:56:27;;;;;;;5.38;2.75;;;14.60;91.60;;;;;;4885966;29;20029;-86
2023/05/03 09:58:53;;;;;;;9.27;3.10;;;14.70;91.30;;;;;;4886160;29;20024;-85
2023/05/03 10:01:22;;;;;;;5.53;2.90;;;14.90;91.20;;;;;;4902869;29;20182;-89
2023/05/03 10:03:49;;;;;;;7.05;3.22;;;15.00;90.90;;;;;;4886132;29;20059;-91
2023/05/03 10:06:23;;;;;;;9.20;3.45;;;15.20;90.40;;;;;;4887021;29;20028;-90
2023/05/03 10:09:04;;;;;;;6.00;3.05;;;15.20;89.50;;;;;;4886879;29;20040;-89
2023/05/03 10:11:33;;;;;;;6.97;2.70;;;15.20;87.90;;;;;;4886641;29;20028;-92
2023/05/03 10:13:59;;;;;;;9.00;3.60;;;15.10;87.30;;;;;;4902809;29;20043;-92
2023/05/03 10:16:35;;;;;;;6.28;3.00;;;15.20;86.80;;;;;;4886521;29;20030;-91
2023/05/03 10:19:10;;;;;;;6.45;3.83;;;15.30;86.00;;;;;;4902468;29;20024;-91
2023/05/03 10:22:05;;;;;;;7.25;2.95;;;15.20;84.90;;;;;;4886720;29;20052;-92
2023/05/03 10:24:33;;;;;;;4.28;3.22;;;15.30;84.90;;;;;;4905730;29;20021;-89
2023/05/03 10:26:59;;;;;;;8.23;2.72;;;15.50;85.10;;;;;;4871044;29;20032;-90
2023/05/03 10:29:33;;;;;;;3.92;2.30;;;15.50;84.50;;;;;;4874866;29;20029;-92
2023/05/03 10:32:02;;;;;;;10.27;2.80;;;15.60;83.60;;;;;;4893744;29;20034;-89
2023/05/03 10:34:32;;;;;;;4.07;2.08;;;15.70;82.70;;;;;;4887692;29;20017;-89
2023/05/03 10:37:01;;;;;;;3.97;2.00;;;15.70;81.60;;;;;;4897304;29;20037;-89
2023/05/03 10:39:28;;;;;;;3.90;1.98;;;15.80;80.00;;;;;;4903516;29;20044;-92
2023/05/03 10:42:08;;;;;;;5.78;2.00;;;15.90;79.70;;;;;;4886214;29;20024;-88
2023/05/03 10:44:50;;;;;;;4.00;1.90;;;16.00;77.80;;;;;;4889755;29;20033;-90
2023/05/03 10:47:18;;;;;;;5.80;3.05;;;15.90;76.70;;;;;;4890165;29;20025;-86
2023/05/03 10:49:46;;;;;;;3.92;2.20;;;15.90;77.00;;;;;;4882906;29;20030;-87
2023/05/03 10:52:34;;;;;;;5.43;1.70;;;15.90;77.20;;;;;;4887901;29;20206;-91
2023/05/03 10:55:10;;;;;;;3.28;2.00;;;16.10;77.70;;;;;;4888886;29;20040;-88
2023/05/03 10:57:38;;;;;;;5.57;2.50;;;16.20;77.20;;;;;;4888299;29;20081;-84
2023/05/03 11:00:11;;;;;;;7.57;2.70;;;16.40;76.80;;;;;;4904306;29;20041;-84
2023/05/03 11:02:53;;;;;;;4.80;2.15;;;16.50;76.50;;;;;;4877122;29;20104;-85
2023/05/03 11:05:20;;;;;;;7.28;1.83;;;16.70;76.00;;;;;;4893710;29;20037;-86
2023/05/03 11:07:46;;;;;;;3.95;1.83;;;17.00;75.50;;;;;;4887451;29;20392;-88
2023/05/03 11:10:19;;;;;;;6.22;2.30;;;17.10;74.50;;;;;;4904324;29;20148;-87
2023/05/03 11:12:45;;;;;;;4.68;2.53;;;17.30;73.00;;;;;;4886696;29;20085;-85
2023/05/03 11:15:11;;;;;;;4.05;2.42;;;17.20;72.10;;;;;;4886247;29;20065;-89
2023/05/03 11:17:37;;;;;;;3.65;2.15;;;17.00;72.20;;;;;;4887310;29;20017;-85
2023/05/03 11:20:07;;;;;;;4.15;2.70;;;16.90;73.00;;;;;;4888121;29;20021;-85
2023/05/03 11:22:34;;;;;;;5.80;2.40;;;16.90;73.00;;;;;;4902843;29;20025;-87
2023/05/03 11:24:59;;;;;;;4.60;2.38;;;17.10;73.20;;;;;;4887569;29;20074;-94
2023/05/03 11:27:25;;;;;;;4.22;2.17;;;17.20;72.30;;;;;;4887286;29;20021;-92
2023/05/03 11:29:52;;;;;;;5.57;2.40;;;17.30;71.60;;;;;;4886091;29;20013;-91
2023/05/03 11:32:18;;;;;;;4.82;2.90;;;17.10;70.60;;;;;;4883655;29;20021;-84
2023/05/03 11:34:44;;;;;;;5.47;2.60;;;17.00;70.80;;;;;;4904079;29;20070;-84
2023/05/03 11:37:10;;;;;;;3.22;2.63;;;17.00;71.10;;;;;;4905339;29;20160;-86
2023/05/03 11:39:36;;;;;;;3.78;2.10;;;17.00;71.90;;;;;;4888860;29;20025;-87
2023/05/03 11:42:06;;;;;;;5.63;2.90;;;17.10;72.00;;;;;;4887061;29;20013;-89
2023/05/03 11:44:31;;;;;;;4.45;3.13;;;17.00;71.80;;;;;;4898189;29;20048;-92
2023/05/03 11:46:57;;;;;;;6.95;2.92;;;17.10;72.00;;;;;;4885837;29;20032;-89
2023/05/03 11:49:23;;;;;;;3.78;2.72;;;17.10;71.70;;;;;;4886507;29;20033;-91
2023/05/03 11:51:51;;;;;;;5.97;2.60;;;17.20;71.80;;;;;;4886647;29;20029;-90
2023/05/03 11:54:17;;;;;;;3.65;2.38;;;17.30;71.80;;;;;;4887391;29;20033;-92
2023/05/03 11:56:43;;;;;;;3.83;2.38;;;17.40;71.70;;;;;;4881595;29;20044;-95
2023/05/03 11:59:09;;;;;;;5.32;2.50;;;17.70;71.30;;;;;;4889886;29;20037;-94
2023/05/03 12:01:35;;;;;;;4.53;1.92;;;17.80;70.10;;;;;;4874648;29;20029;-94
2023/05/03 12:04:03;;;;;;;4.43;1.98;;;18.00;69.60;;;;;;4888786;29;20069;-94
2023/05/03 12:06:33;;;;;;;3.83;2.65;;;18.30;69.30;;;;;;4887318;29;20108;-93
2023/05/03 12:09:00;;;;;;;4.40;2.58;;;18.50;68.10;;;;;;4869899;29;20025;-92
2023/05/03 12:11:26;;;;;;;5.57;2.00;;;18.40;67.30;;;;;;4866962;29;20124;-94
2023/05/03 12:13:57;;;;;;;3.17;1.95;;;18.30;67.10;;;;;;4871919;29;20029;-94
2023/05/03 12:16:23;;;;;;;3.70;1.80;;;18.20;67.20;;;;;;4873761;29;20033;-93
2023/05/03 12:19:01;;;;;;;4.45;1.98;;;18.20;67.00;;;;;;4873184;29;20021;-93
2023/05/03 12:21:46;;;;;;;2.78;1.98;;;18.30;66.60;;;;;;4866767;29;20716;-93
2023/05/03 12:24:16;;;;;;;3.50;2.00;;;18.40;66.70;;;;;;4873395;29;20036;-94
2023/05/03 12:26:43;;;;;;;3.35;2.10;;;18.40;66.20;;;;;;4866512;29;20040;-95
2023/05/03 12:29:09;;;;;;;6.55;2.58;;;18.50;66.10;;;;;;4870370;29;20464;-94
2023/05/03 12:31:36;;;;;;;2.83;2.40;;;18.70;65.90;;;;;;4869779;29;20025;-95
2023/05/03 12:34:03;;;;;;;4.22;2.72;;;18.60;65.50;;;;;;4870699;29;20025;-94
2023/05/03 12:36:31;;;;;;;6.55;2.47;;;18.60;65.30;;;;;;4866173;29;20530;-95
2023/05/03 12:38:57;;;;;;;4.72;2.50;;;18.60;65.20;;;;;;4873147;29;20057;-94
2023/05/03 12:41:26;;;;;;;3.72;1.90;;;18.70;65.00;;;;;;4875387;29;20025;-95
2023/05/03 12:43:52;;;;;;;7.40;2.00;;;18.60;64.20;;;;;;4874559;29;20037;-94
2023/05/03 12:46:18;;;;;;;4.50;1.98;;;18.60;64.40;;;;;;4868726;29;20033;-94
2023/05/03 12:48:44;;;;;;;2.53;1.75;;;18.70;64.90;;;;;;4870734;29;20032;-94